sensor_id;sensor_type;location;lat;lon;timestamp;pressure;altitude;pressure_sealevel;temperature;humidity
71889;BME280;59762;49.998;14.858;2022-10-31T00:00:57;97878.94;;;10.22;100.00
71889;BME280;59762;49.998;14.858;2022-10-31T00:03:36;97878.72;;;10.17;100.00
71889;BME280;59762;49.998;14.858;2022-10-31T00:06:02;97875.84;;;10.11;100.00
71889;BME280;59762;49.998;14.858;2022-10-31T00:08:27;97877.44;;;9.99;100.00
71889;BME280;59762;49.998;14.858;2022-10-31T00:10:53;97881.72;;;9.94;100.00
71889;BME280;59762;49.998;14.858;2022-10-31T00:13:19;97884.59;;;9.99;100.00
71889;BME280;59762;49.998;14.858;2022-10-31T00:15:44;97881.13;;;9.92;100.00
71889;BME280;59762;49.998;14.858;2022-10-31T00:18:10;97878.63;;;9.83;100.00
71889;BME280;59762;49.998;14.858;2022-10-31T00:20:36;97880.47;;;9.90;100.00
71889;BME280;59762;49.998;14.858;2022-10-31T00:23:03;97880.09;;;9.93;100.00
71889;BME280;59762;49.998;14.858;2022-10-31T00:25:33;97871.91;;;9.94;100.00
71889;BME280;59762;49.998;14.858;2022-10-31T00:27:59;97873.72;;;9.87;100.00
71889;BME280;59762;49.998;14.858;2022-10-31T00:30:24;97883.31;;;9.81;100.00
71889;BME280;59762;49.998;14.858;2022-10-31T00:32:50;97880.53;;;9.96;100.00
71889;BME280;59762;49.998;14.858;2022-10-31T00:35:15;97879.94;;;10.07;100.00
71889;BME280;59762;49.998;14.858;2022-10-31T00:37:41;97883.22;;;10.16;100.00
71889;BME280;59762;49.998;14.858;2022-10-31T00:40:07;97880.41;;;10.24;100.00
71889;BME280;59762;49.998;14.858;2022-10-31T00:42:33;97882.88;;;10.26;100.00
71889;BME280;59762;49.998;14.858;2022-10-31T00:44:58;97879.38;;;10.25;100.00
71889;BME280;59762;49.998;14.858;2022-10-31T00:47:24;97877.31;;;10.21;100.00
71889;BME280;59762;49.998;14.858;2022-10-31T00:49:50;97878.50;;;10.11;100.00
71889;BME280;59762;49.998;14.858;2022-10-31T00:52:15;97878.47;;;9.98;100.00
71889;BME280;59762;49.998;14.858;2022-10-31T00:54:41;97877.44;;;9.99;100.00
71889;BME280;59762;49.998;14.858;2022-10-31T00:57:06;97881.50;;;9.89;100.00
71889;BME280;59762;49.998;14.858;2022-10-31T00:59:32;97884.56;;;9.79;100.00
71889;BME280;59762;49.998;14.858;2022-10-31T01:01:57;97880.81;;;9.67;100.00
71889;BME280;59762;49.998;14.858;2022-10-31T01:04:23;97874.78;;;9.51;100.00
71889;BME280;59762;49.998;14.858;2022-10-31T01:06:49;97878.97;;;9.67;100.00
71889;BME280;59762;49.998;14.858;2022-10-31T01:09:14;97877.94;;;9.68;100.00
71889;BME280;59762;49.998;14.858;2022-10-31T01:11:40;97884.94;;;9.82;100.00
71889;BME280;59762;49.998;14.858;2022-10-31T01:14:05;97884.94;;;9.76;100.00
71889;BME280;59762;49.998;14.858;2022-10-31T01:16:31;97882.00;;;9.64;100.00
71889;BME280;59762;49.998;14.858;2022-10-31T01:18:57;97888.41;;;9.70;100.00
71889;BME280;59762;49.998;14.858;2022-10-31T01:21:25;97884.81;;;9.49;100.00
71889;BME280;59762;49.998;14.858;2022-10-31T01:23:55;97887.84;;;9.46;100.00
71889;BME280;59762;49.998;14.858;2022-10-31T01:26:24;97881.41;;;9.62;100.00
71889;BME280;59762;49.998;14.858;2022-10-31T01:28:55;97878.31;;;9.58;100.00
71889;BME280;59762;49.998;14.858;2022-10-31T01:31:23;97888.41;;;9.35;100.00
71889;BME280;59762;49.998;14.858;2022-10-31T01:33:49;97888.50;;;9.14;100.00
71889;BME280;59762;49.998;14.858;2022-10-31T01:38:52;97894.41;;;8.81;100.00
71889;BME280;59762;49.998;14.858;2022-10-31T01:41:26;97884.06;;;8.71;100.00
71889;BME280;59762;49.998;14.858;2022-10-31T01:44:03;97882.50;;;8.77;100.00
71889;BME280;59762;49.998;14.858;2022-10-31T01:49:44;97877.00;;;8.78;100.00
71889;BME280;59762;49.998;14.858;2022-10-31T01:52:30;97867.88;;;8.88;100.00
71889;BME280;59762;49.998;14.858;2022-10-31T01:55:01;97879.84;;;9.05;100.00
71889;BME280;59762;49.998;14.858;2022-10-31T01:57:29;97882.28;;;9.34;100.00
71889;BME280;59762;49.998;14.858;2022-10-31T02:00:03;97879.38;;;9.29;100.00
71889;BME280;59762;49.998;14.858;2022-10-31T02:02:30;97882.09;;;9.43;100.00
71889;BME280;59762;49.998;14.858;2022-10-31T02:04:59;97885.63;;;9.43;100.00
71889;BME280;59762;49.998;14.858;2022-10-31T02:07:30;97886.28;;;9.52;100.00
71889;BME280;59762;49.998;14.858;2022-10-31T02:10:00;97877.22;;;9.46;100.00
71889;BME280;59762;49.998;14.858;2022-10-31T02:12:29;97871.91;;;9.46;100.00
71889;BME280;59762;49.998;14.858;2022-10-31T02:14:56;97876.50;;;9.66;100.00
71889;BME280;59762;49.998;14.858;2022-10-31T02:17:22;97889.59;;;9.67;100.00
71889;BME280;59762;49.998;14.858;2022-10-31T02:20:18;97887.53;;;9.63;100.00
71889;BME280;59762;49.998;14.858;2022-10-31T02:36:42;97879.22;;;9.79;100.00
71889;BME280;59762;49.998;14.858;2022-10-31T02:42:09;97872.34;;;9.50;100.00
71889;BME280;59762;49.998;14.858;2022-10-31T02:44:50;97870.88;;;9.47;100.00
71889;BME280;59762;49.998;14.858;2022-10-31T02:47:19;97881.03;;;9.72;100.00
71889;BME280;59762;49.998;14.858;2022-10-31T02:52:26;97886.84;;;9.89;100.00
71889;BME280;59762;49.998;14.858;2022-10-31T02:54:52;97887.25;;;9.92;100.00
71889;BME280;59762;49.998;14.858;2022-10-31T02:57:30;97877.19;;;9.81;100.00
71889;BME280;59762;49.998;14.858;2022-10-31T03:00:03;97871.84;;;9.74;100.00
71889;BME280;59762;49.998;14.858;2022-10-31T03:02:45;97874.84;;;9.65;100.00
71889;BME280;59762;49.998;14.858;2022-10-31T03:13:22;97890.88;;;9.78;100.00
71889;BME280;59762;49.998;14.858;2022-10-31T03:15:51;97883.09;;;9.70;100.00
71889;BME280;59762;49.998;14.858;2022-10-31T03:18:28;97884.66;;;9.64;100.00
71889;BME280;59762;49.998;14.858;2022-10-31T03:20:59;97888.16;;;9.65;100.00
71889;BME280;59762;49.998;14.858;2022-10-31T03:23:27;97890.41;;;9.68;100.00
71889;BME280;59762;49.998;14.858;2022-10-31T03:25:54;97890.03;;;9.71;100.00
71889;BME280;59762;49.998;14.858;2022-10-31T03:28:24;97887.38;;;9.71;100.00
71889;BME280;59762;49.998;14.858;2022-10-31T03:30:52;97894.47;;;9.57;100.00
71889;BME280;59762;49.998;14.858;2022-10-31T03:33:23;97896.47;;;9.48;100.00
71889;BME280;59762;49.998;14.858;2022-10-31T03:35:53;97902.78;;;9.47;100.00
71889;BME280;59762;49.998;14.858;2022-10-31T03:38:21;97905.84;;;9.44;100.00
71889;BME280;59762;49.998;14.858;2022-10-31T03:40:48;97903.38;;;9.43;100.00
71889;BME280;59762;49.998;14.858;2022-10-31T03:43:19;97897.88;;;9.09;100.00
71889;BME280;59762;49.998;14.858;2022-10-31T03:45:47;97905.03;;;8.81;100.00
71889;BME280;59762;49.998;14.858;2022-10-31T03:48:14;97908.66;;;8.80;100.00
71889;BME280;59762;49.998;14.858;2022-10-31T03:50:49;97899.44;;;8.76;100.00
71889;BME280;59762;49.998;14.858;2022-10-31T03:53:57;97896.75;;;8.69;100.00
71889;BME280;59762;49.998;14.858;2022-10-31T03:56:41;97887.03;;;8.55;100.00
71889;BME280;59762;49.998;14.858;2022-10-31T03:59:17;97892.00;;;8.43;100.00
71889;BME280;59762;49.998;14.858;2022-10-31T04:01:50;97903.00;;;8.40;100.00
71889;BME280;59762;49.998;14.858;2022-10-31T04:04:18;97891.19;;;8.43;100.00
71889;BME280;59762;49.998;14.858;2022-10-31T04:06:46;97893.41;;;8.39;100.00
71889;BME280;59762;49.998;14.858;2022-10-31T04:09:13;97894.03;;;8.41;100.00
71889;BME280;59762;49.998;14.858;2022-10-31T04:11:44;97897.13;;;8.45;100.00
71889;BME280;59762;49.998;14.858;2022-10-31T04:14:11;97907.69;;;8.38;100.00
71889;BME280;59762;49.998;14.858;2022-10-31T04:16:40;97906.91;;;8.44;100.00
71889;BME280;59762;49.998;14.858;2022-10-31T04:19:07;97917.47;;;8.38;100.00
71889;BME280;59762;49.998;14.858;2022-10-31T04:21:33;97909.84;;;8.34;100.00
71889;BME280;59762;49.998;14.858;2022-10-31T04:23:59;97913.03;;;8.45;100.00
71889;BME280;59762;49.998;14.858;2022-10-31T04:26:24;97916.34;;;8.68;100.00
71889;BME280;59762;49.998;14.858;2022-10-31T04:28:50;97908.19;;;8.48;100.00
71889;BME280;59762;49.998;14.858;2022-10-31T04:31:16;97908.38;;;8.47;100.00
71889;BME280;59762;49.998;14.858;2022-10-31T04:33:41;97913.38;;;8.56;100.00
71889;BME280;59762;49.998;14.858;2022-10-31T04:36:07;97906.72;;;8.67;100.00
71889;BME280;59762;49.998;14.858;2022-10-31T04:38:33;97909.56;;;8.87;100.00
71889;BME280;59762;49.998;14.858;2022-10-31T04:40:59;97912.00;;;8.89;100.00
71889;BME280;59762;49.998;14.858;2022-10-31T04:43:24;97911.25;;;8.95;100.00
71889;BME280;59762;49.998;14.858;2022-10-31T04:45:50;97912.00;;;8.89;100.00
71889;BME280;59762;49.998;14.858;2022-10-31T04:48:15;97920.41;;;8.92;100.00
71889;BME280;59762;49.998;14.858;2022-10-31T04:50:41;97916.13;;;8.91;100.00
71889;BME280;59762;49.998;14.858;2022-10-31T04:53:07;97916.88;;;8.85;100.00
71889;BME280;59762;49.998;14.858;2022-10-31T04:55:32;97917.66;;;8.79;100.00
71889;BME280;59762;49.998;14.858;2022-10-31T04:57:58;97926.97;;;8.68;100.00
71889;BME280;59762;49.998;14.858;2022-10-31T05:00:24;97931.03;;;8.64;100.00
71889;BME280;59762;49.998;14.858;2022-10-31T05:02:54;97929.09;;;8.58;100.00
71889;BME280;59762;49.998;14.858;2022-10-31T05:05:23;97936.38;;;8.49;100.00
71889;BME280;59762;49.998;14.858;2022-10-31T05:07:49;97931.22;;;8.41;100.00
71889;BME280;59762;49.998;14.858;2022-10-31T05:10:21;97929.38;;;8.27;100.00
71889;BME280;59762;49.998;14.858;2022-10-31T05:12:48;97935.19;;;8.01;100.00
71889;BME280;59762;49.998;14.858;2022-10-31T05:15:15;97924.97;;;7.83;100.00
71889;BME280;59762;49.998;14.858;2022-10-31T05:17:40;97932.41;;;7.43;100.00
71889;BME280;59762;49.998;14.858;2022-10-31T05:20:06;97926.91;;;7.30;100.00
71889;BME280;59762;49.998;14.858;2022-10-31T05:22:32;97930.59;;;7.29;100.00
71889;BME280;59762;49.998;14.858;2022-10-31T05:24:58;97921.91;;;7.35;100.00
71889;BME280;59762;49.998;14.858;2022-10-31T05:27:23;97927.50;;;7.40;100.00
71889;BME280;59762;49.998;14.858;2022-10-31T05:29:49;97926.22;;;7.36;100.00
71889;BME280;59762;49.998;14.858;2022-10-31T05:32:15;97924.38;;;7.22;100.00
71889;BME280;59762;49.998;14.858;2022-10-31T05:34:40;97921.72;;;7.22;100.00
71889;BME280;59762;49.998;14.858;2022-10-31T05:37:06;97922.09;;;7.19;100.00
71889;BME280;59762;49.998;14.858;2022-10-31T05:39:31;97917.34;;;7.29;100.00
71889;BME280;59762;49.998;14.858;2022-10-31T05:41:57;97923.09;;;7.47;100.00
71889;BME280;59762;49.998;14.858;2022-10-31T05:44:22;97925.09;;;7.60;100.00
71889;BME280;59762;49.998;14.858;2022-10-31T05:46:48;97928.56;;;7.61;100.00
71889;BME280;59762;49.998;14.858;2022-10-31T05:49:14;97935.53;;;7.62;100.00
71889;BME280;59762;49.998;14.858;2022-10-31T05:51:39;97936.78;;;7.66;100.00
71889;BME280;59762;49.998;14.858;2022-10-31T05:54:05;97940.09;;;7.68;100.00
71889;BME280;59762;49.998;14.858;2022-10-31T05:56:30;97934.06;;;7.74;100.00
71889;BME280;59762;49.998;14.858;2022-10-31T05:58:56;97935.22;;;7.86;100.00
71889;BME280;59762;49.998;14.858;2022-10-31T06:01:22;97932.69;;;7.93;100.00
71889;BME280;59762;49.998;14.858;2022-10-31T06:03:47;97942.63;;;7.91;100.00
71889;BME280;59762;49.998;14.858;2022-10-31T06:06:13;97936.31;;;7.92;100.00
71889;BME280;59762;49.998;14.858;2022-10-31T06:08:39;97943.91;;;7.95;100.00
71889;BME280;59762;49.998;14.858;2022-10-31T06:11:05;97947.38;;;7.95;100.00
71889;BME280;59762;49.998;14.858;2022-10-31T06:13:31;97941.09;;;7.81;100.00
71889;BME280;59762;49.998;14.858;2022-10-31T06:15:56;97939.44;;;7.80;100.00
71889;BME280;59762;49.998;14.858;2022-10-31T06:18:22;97944.59;;;7.67;100.00
71889;BME280;59762;49.998;14.858;2022-10-31T06:20:47;97945.66;;;7.73;100.00
71889;BME280;59762;49.998;14.858;2022-10-31T06:23:13;97947.06;;;7.54;100.00
71889;BME280;59762;49.998;14.858;2022-10-31T06:25:39;97952.28;;;7.62;100.00
71889;BME280;59762;49.998;14.858;2022-10-31T06:28:05;97951.72;;;7.67;100.00
71889;BME280;59762;49.998;14.858;2022-10-31T06:30:30;97958.38;;;7.63;100.00
71889;BME280;59762;49.998;14.858;2022-10-31T06:33:02;97956.28;;;7.58;100.00
71889;BME280;59762;49.998;14.858;2022-10-31T06:35:28;97961.59;;;7.58;100.00
71889;BME280;59762;49.998;14.858;2022-10-31T06:37:54;97960.03;;;7.64;100.00
71889;BME280;59762;49.998;14.858;2022-10-31T06:40:20;97963.78;;;7.69;100.00
71889;BME280;59762;49.998;14.858;2022-10-31T06:42:45;97962.75;;;7.85;100.00
71889;BME280;59762;49.998;14.858;2022-10-31T06:45:11;97960.09;;;8.00;100.00
71889;BME280;59762;49.998;14.858;2022-10-31T06:47:36;97964.47;;;8.07;100.00
71889;BME280;59762;49.998;14.858;2022-10-31T06:50:02;97965.56;;;8.13;100.00
71889;BME280;59762;49.998;14.858;2022-10-31T06:52:28;97964.81;;;8.19;100.00
71889;BME280;59762;49.998;14.858;2022-10-31T06:54:53;97971.47;;;8.30;100.00
71889;BME280;59762;49.998;14.858;2022-10-31T06:57:19;97973.28;;;8.44;100.00
71889;BME280;59762;49.998;14.858;2022-10-31T06:59:44;97980.31;;;8.52;100.00
71889;BME280;59762;49.998;14.858;2022-10-31T07:02:11;97977.28;;;8.55;100.00
71889;BME280;59762;49.998;14.858;2022-10-31T07:04:36;97978.38;;;8.61;100.00
71889;BME280;59762;49.998;14.858;2022-10-31T07:07:02;97984.63;;;8.74;100.00
71889;BME280;59762;49.998;14.858;2022-10-31T07:09:28;97986.59;;;8.87;100.00
71889;BME280;59762;49.998;14.858;2022-10-31T07:11:53;97986.84;;;8.92;100.00
71889;BME280;59762;49.998;14.858;2022-10-31T07:14:19;97980.56;;;9.00;100.00
71889;BME280;59762;49.998;14.858;2022-10-31T07:16:48;97984.06;;;9.00;100.00
71889;BME280;59762;49.998;14.858;2022-10-31T07:19:14;97987.31;;;9.02;100.00
71889;BME280;59762;49.998;14.858;2022-10-31T07:21:40;97985.69;;;9.01;100.00
71889;BME280;59762;49.998;14.858;2022-10-31T07:24:05;97990.19;;;9.01;100.00
71889;BME280;59762;49.998;14.858;2022-10-31T07:26:31;97992.91;;;9.07;100.00
71889;BME280;59762;49.998;14.858;2022-10-31T07:28:56;97986.13;;;9.05;100.00
71889;BME280;59762;49.998;14.858;2022-10-31T07:31:22;97998.06;;;9.16;100.00
71889;BME280;59762;49.998;14.858;2022-10-31T07:33:47;97994.78;;;9.14;100.00
71889;BME280;59762;49.998;14.858;2022-10-31T07:36:13;97996.44;;;9.15;100.00
71889;BME280;59762;49.998;14.858;2022-10-31T07:38:38;98001.13;;;9.13;100.00
71889;BME280;59762;49.998;14.858;2022-10-31T07:41:04;98001.81;;;9.21;100.00
71889;BME280;59762;49.998;14.858;2022-10-31T07:43:30;98000.91;;;9.35;100.00
71889;BME280;59762;49.998;14.858;2022-10-31T07:45:55;97998.50;;;9.47;100.00
71889;BME280;59762;49.998;14.858;2022-10-31T07:48:21;98002.44;;;9.51;100.00
71889;BME280;59762;49.998;14.858;2022-10-31T07:50:47;97996.44;;;9.71;100.00
71889;BME280;59762;49.998;14.858;2022-10-31T07:53:13;98003.91;;;9.89;100.00
71889;BME280;59762;49.998;14.858;2022-10-31T07:55:40;97993.50;;;10.00;100.00
71889;BME280;59762;49.998;14.858;2022-10-31T07:58:14;97994.06;;;10.24;100.00
71889;BME280;59762;49.998;14.858;2022-10-31T08:00:42;97988.59;;;10.39;100.00
71889;BME280;59762;49.998;14.858;2022-10-31T08:03:10;97987.59;;;10.46;100.00
71889;BME280;59762;49.998;14.858;2022-10-31T08:05:36;97991.72;;;10.55;100.00
71889;BME280;59762;49.998;14.858;2022-10-31T08:08:04;97991.94;;;10.60;100.00
71889;BME280;59762;49.998;14.858;2022-10-31T08:10:30;97990.50;;;10.65;100.00
71889;BME280;59762;49.998;14.858;2022-10-31T08:12:57;97994.41;;;10.75;100.00
71889;BME280;59762;49.998;14.858;2022-10-31T08:15:23;97997.53;;;10.85;100.00
71889;BME280;59762;49.998;14.858;2022-10-31T08:17:49;97998.78;;;10.96;100.00
71889;BME280;59762;49.998;14.858;2022-10-31T08:20:15;97996.94;;;11.03;100.00
71889;BME280;59762;49.998;14.858;2022-10-31T08:22:40;97988.31;;;11.15;100.00
71889;BME280;59762;49.998;14.858;2022-10-31T08:25:06;97992.44;;;11.17;100.00
71889;BME280;59762;49.998;14.858;2022-10-31T08:27:32;97995.09;;;11.24;100.00
71889;BME280;59762;49.998;14.858;2022-10-31T08:29:57;97993.25;;;11.31;100.00
71889;BME280;59762;49.998;14.858;2022-10-31T08:32:24;97995.69;;;11.32;100.00
71889;BME280;59762;49.998;14.858;2022-10-31T08:34:49;97999.19;;;11.40;100.00
71889;BME280;59762;49.998;14.858;2022-10-31T08:37:15;97993.03;;;11.39;100.00
71889;BME280;59762;49.998;14.858;2022-10-31T08:39:48;97994.47;;;11.35;100.00
71889;BME280;59762;49.998;14.858;2022-10-31T08:42:14;97986.47;;;11.35;100.00
71889;BME280;59762;49.998;14.858;2022-10-31T08:44:39;97992.44;;;11.30;100.00
71889;BME280;59762;49.998;14.858;2022-10-31T08:47:05;97985.88;;;11.26;100.00
71889;BME280;59762;49.998;14.858;2022-10-31T08:49:30;97996.53;;;11.26;100.00
71889;BME280;59762;49.998;14.858;2022-10-31T08:51:56;97989.34;;;11.14;100.00
71889;BME280;59762;49.998;14.858;2022-10-31T08:54:22;97993.66;;;11.01;100.00
71889;BME280;59762;49.998;14.858;2022-10-31T08:56:47;97989.56;;;10.99;100.00
71889;BME280;59762;49.998;14.858;2022-10-31T08:59:13;97984.66;;;11.02;100.00
71889;BME280;59762;49.998;14.858;2022-10-31T09:01:38;97982.97;;;11.15;100.00
71889;BME280;59762;49.998;14.858;2022-10-31T09:04:04;97984.84;;;11.14;100.00
71889;BME280;59762;49.998;14.858;2022-10-31T09:06:29;97979.31;;;11.16;100.00
71889;BME280;59762;49.998;14.858;2022-10-31T09:08:55;97982.16;;;11.14;100.00
71889;BME280;59762;49.998;14.858;2022-10-31T09:11:21;97975.41;;;11.11;100.00
71889;BME280;59762;49.998;14.858;2022-10-31T09:13:46;97983.78;;;11.02;100.00
71889;BME280;59762;49.998;14.858;2022-10-31T09:16:12;97984.22;;;10.85;100.00
71889;BME280;59762;49.998;14.858;2022-10-31T09:18:37;97987.50;;;10.94;100.00
71889;BME280;59762;49.998;14.858;2022-10-31T09:21:03;97989.75;;;10.97;100.00
71889;BME280;59762;49.998;14.858;2022-10-31T09:23:29;97988.31;;;10.81;100.00
71889;BME280;59762;49.998;14.858;2022-10-31T09:25:55;97992.38;;;10.84;100.00
71889;BME280;59762;49.998;14.858;2022-10-31T09:28:23;97993.63;;;10.88;100.00
71889;BME280;59762;49.998;14.858;2022-10-31T09:30:51;97999.13;;;10.67;100.00
71889;BME280;59762;49.998;14.858;2022-10-31T09:33:17;97988.69;;;10.78;100.00
71889;BME280;59762;49.998;14.858;2022-10-31T09:35:44;97991.38;;;10.92;100.00
71889;BME280;59762;49.998;14.858;2022-10-31T09:38:14;97980.34;;;11.08;100.00
71889;BME280;59762;49.998;14.858;2022-10-31T09:40:42;97986.25;;;11.10;100.00
71889;BME280;59762;49.998;14.858;2022-10-31T09:51:12;97980.94;;;11.30;100.00
71889;BME280;59762;49.998;14.858;2022-10-31T09:56:28;97986.91;;;11.39;100.00
71889;BME280;59762;49.998;14.858;2022-10-31T09:59:00;97982.97;;;11.54;100.00
71889;BME280;59762;49.998;14.858;2022-10-31T10:04:03;97987.03;;;11.77;100.00
71889;BME280;59762;49.998;14.858;2022-10-31T10:06:35;97982.53;;;11.71;100.00
71889;BME280;59762;49.998;14.858;2022-10-31T10:09:01;97977.19;;;11.64;100.00
71889;BME280;59762;49.998;14.858;2022-10-31T10:19:53;97979.28;;;11.69;100.00
71889;BME280;59762;49.998;14.858;2022-10-31T10:25:38;97982.56;;;11.44;100.00
71889;BME280;59762;49.998;14.858;2022-10-31T10:31:07;97980.09;;;11.56;100.00
71889;BME280;59762;49.998;14.858;2022-10-31T10:33:38;97979.06;;;11.50;100.00
71889;BME280;59762;49.998;14.858;2022-10-31T10:36:10;97974.16;;;11.60;100.00
71889;BME280;59762;49.998;14.858;2022-10-31T10:39:04;97973.31;;;11.53;100.00
71889;BME280;59762;49.998;14.858;2022-10-31T10:41:33;97970.69;;;11.47;100.00
71889;BME280;59762;49.998;14.858;2022-10-31T10:43:59;97972.50;;;11.59;100.00
71889;BME280;59762;49.998;14.858;2022-10-31T10:51:59;97964.22;;;11.94;100.00
71889;BME280;59762;49.998;14.858;2022-10-31T11:02:44;97955.53;;;12.12;100.00
71889;BME280;59762;49.998;14.858;2022-10-31T11:05:42;97950.56;;;12.22;100.00
71889;BME280;59762;49.998;14.858;2022-10-31T11:08:26;97942.97;;;12.19;100.00
71889;BME280;59762;49.998;14.858;2022-10-31T11:13:41;97932.56;;;12.49;100.00
71889;BME280;59762;49.998;14.858;2022-10-31T11:16:10;97939.53;;;12.50;100.00
71889;BME280;59762;49.998;14.858;2022-10-31T11:18:40;97941.16;;;12.51;100.00
71889;BME280;59762;49.998;14.858;2022-10-31T11:21:20;97934.09;;;12.63;100.00
71889;BME280;59762;49.998;14.858;2022-10-31T11:23:46;97936.94;;;12.69;100.00
71889;BME280;59762;49.998;14.858;2022-10-31T11:26:21;97934.28;;;12.69;100.00
71889;BME280;59762;49.998;14.858;2022-10-31T11:28:56;97925.03;;;12.65;100.00
71889;BME280;59762;49.998;14.858;2022-10-31T11:31:23;97922.03;;;12.54;100.00
71889;BME280;59762;49.998;14.858;2022-10-31T11:33:56;97923.97;;;12.41;100.00
71889;BME280;59762;49.998;14.858;2022-10-31T11:36:25;97925.34;;;12.50;100.00
71889;BME280;59762;49.998;14.858;2022-10-31T11:38:53;97931.13;;;12.47;100.00
71889;BME280;59762;49.998;14.858;2022-10-31T11:43:58;97932.56;;;12.49;100.00
71889;BME280;59762;49.998;14.858;2022-10-31T11:46:39;97937.84;;;12.56;100.00
71889;BME280;59762;49.998;14.858;2022-10-31T11:49:15;97924.28;;;12.57;100.00
71889;BME280;59762;49.998;14.858;2022-10-31T11:51:41;97930.41;;;12.65;100.00
71889;BME280;59762;49.998;14.858;2022-10-31T11:54:18;97923.75;;;12.42;100.00
71889;BME280;59762;49.998;14.858;2022-10-31T11:56:45;97920.34;;;12.60;100.00
71889;BME280;59762;49.998;14.858;2022-10-31T11:59:37;97923.50;;;12.50;100.00
71889;BME280;59762;49.998;14.858;2022-10-31T12:02:17;97918.16;;;12.50;100.00
71889;BME280;59762;49.998;14.858;2022-10-31T12:04:47;97913.22;;;12.54;100.00
71889;BME280;59762;49.998;14.858;2022-10-31T12:07:14;97909.06;;;12.58;100.00
71889;BME280;59762;49.998;14.858;2022-10-31T12:09:40;97897.13;;;12.60;100.00
71889;BME280;59762;49.998;14.858;2022-10-31T12:17:39;97891.38;;;12.88;100.00
71889;BME280;59762;49.998;14.858;2022-10-31T12:44:55;97876.00;;;12.84;100.00
71889;BME280;59762;49.998;14.858;2022-10-31T12:50:47;97870.16;;;12.94;100.00
71889;BME280;59762;49.998;14.858;2022-10-31T12:59:01;97860.09;;;12.89;100.00
71889;BME280;59762;49.998;14.858;2022-10-31T13:01:36;97857.44;;;12.89;100.00
71889;BME280;59762;49.998;14.858;2022-10-31T13:04:18;97851.19;;;12.95;100.00
71889;BME280;59762;49.998;14.858;2022-10-31T13:06:55;97848.28;;;12.97;100.00
71889;BME280;59762;49.998;14.858;2022-10-31T13:09:33;97849.22;;;13.09;100.00
71889;BME280;59762;49.998;14.858;2022-10-31T13:12:12;97840.69;;;13.19;100.00
71889;BME280;59762;49.998;14.858;2022-10-31T13:14:43;97841.69;;;13.24;100.00
71889;BME280;59762;49.998;14.858;2022-10-31T13:17:18;97843.09;;;13.27;100.00
71889;BME280;59762;49.998;14.858;2022-10-31T13:19:46;97848.44;;;13.27;100.00
71889;BME280;59762;49.998;14.858;2022-10-31T13:22:17;97842.00;;;13.09;100.00
71889;BME280;59762;49.998;14.858;2022-10-31T13:24:59;97843.81;;;13.16;100.00
71889;BME280;59762;49.998;14.858;2022-10-31T13:27:44;97844.16;;;13.19;100.00
71889;BME280;59762;49.998;14.858;2022-10-31T13:30:21;97838.47;;;13.16;100.00
71889;BME280;59762;49.998;14.858;2022-10-31T13:35:43;97838.00;;;13.19;100.00
71889;BME280;59762;49.998;14.858;2022-10-31T13:40:59;97840.06;;;12.98;100.00
71889;BME280;59762;49.998;14.858;2022-10-31T13:46:35;97842.81;;;12.67;100.00
71889;BME280;59762;49.998;14.858;2022-10-31T13:49:02;97833.44;;;12.57;100.00
71889;BME280;59762;49.998;14.858;2022-10-31T13:51:33;97840.94;;;12.42;100.00
71889;BME280;59762;49.998;14.858;2022-10-31T13:54:20;97845.06;;;12.38;100.00
71889;BME280;59762;49.998;14.858;2022-10-31T13:56:50;97842.72;;;12.17;100.00
71889;BME280;59762;49.998;14.858;2022-10-31T13:59:21;97843.19;;;12.14;100.00
71889;BME280;59762;49.998;14.858;2022-10-31T14:02:17;97831.78;;;11.93;100.00
71889;BME280;59762;49.998;14.858;2022-10-31T14:07:27;97836.19;;;11.68;100.00
71889;BME280;59762;49.998;14.858;2022-10-31T14:10:06;97836.03;;;11.56;100.00
71889;BME280;59762;49.998;14.858;2022-10-31T14:12:46;97835.63;;;11.52;100.00
71889;BME280;59762;49.998;14.858;2022-10-31T14:15:26;97839.75;;;11.48;100.00
71889;BME280;59762;49.998;14.858;2022-10-31T14:17:58;97838.75;;;11.43;100.00
71889;BME280;59762;49.998;14.858;2022-10-31T14:20:41;97832.97;;;11.52;100.00
71889;BME280;59762;49.998;14.858;2022-10-31T14:28:53;97827.53;;;11.21;100.00
71889;BME280;59762;49.998;14.858;2022-10-31T14:31:37;97827.50;;;11.34;100.00
71889;BME280;59762;49.998;14.858;2022-10-31T14:34:25;97832.84;;;11.27;100.00
71889;BME280;59762;49.998;14.858;2022-10-31T14:39:41;97830.19;;;11.14;100.00
71889;BME280;59762;49.998;14.858;2022-10-31T14:42:45;97825.72;;;11.01;100.00
71889;BME280;59762;49.998;14.858;2022-10-31T14:50:29;97817.56;;;10.70;100.00
71889;BME280;59762;49.998;14.858;2022-10-31T14:52:57;97811.00;;;10.59;100.00
71889;BME280;59762;49.998;14.858;2022-10-31T14:55:26;97827.78;;;10.53;100.00
71889;BME280;59762;49.998;14.858;2022-10-31T14:58:01;97827.41;;;10.49;100.00
71889;BME280;59762;49.998;14.858;2022-10-31T15:00:31;97814.09;;;10.49;100.00
71889;BME280;59762;49.998;14.858;2022-10-31T15:03:16;97814.09;;;10.49;100.00
71889;BME280;59762;49.998;14.858;2022-10-31T15:05:51;97814.91;;;10.37;100.00
71889;BME280;59762;49.998;14.858;2022-10-31T15:08:40;97812.03;;;10.38;100.00
71889;BME280;59762;49.998;14.858;2022-10-31T15:11:14;97804.44;;;10.42;100.00
71889;BME280;59762;49.998;14.858;2022-10-31T15:13:45;97808.94;;;10.34;100.00
71889;BME280;59762;49.998;14.858;2022-10-31T15:16:13;97810.38;;;10.30;100.00
71889;BME280;59762;49.998;14.858;2022-10-31T15:19:03;97805.41;;;10.21;100.00
71889;BME280;59762;49.998;14.858;2022-10-31T15:21:29;97803.41;;;10.23;100.00